createdAt,value
2022-09-15T00:01:01.308Z,98611.44
2022-09-15T00:03:28.932Z,98603.91
2022-09-15T00:05:56.273Z,98584.44
2022-09-15T00:08:24.093Z,98576.84
2022-09-15T00:11:03.013Z,98565.75
2022-09-15T00:13:30.349Z,98590.06
2022-09-15T00:15:57.973Z,98600.97
2022-09-15T00:18:25.401Z,98596.66
2022-09-15T00:20:52.782Z,98601.53
2022-09-15T00:23:20.539Z,98609.09
2022-09-15T00:25:49.891Z,98623.13
2022-09-15T00:28:21.522Z,98636.94
2022-09-15T00:30:53.956Z,98656.69
2022-09-15T00:33:21.921Z,98650.47
2022-09-15T00:35:51.816Z,98664.25
2022-09-15T00:38:19.902Z,98684.78
2022-09-15T00:40:48.114Z,98697.25
2022-09-15T00:43:16.510Z,98705.37
2022-09-15T00:45:44.979Z,98697.50
2022-09-15T00:48:15.882Z,98692.34
2022-09-15T00:50:45.201Z,98702.59
2022-09-15T00:53:12.534Z,98702.03
2022-09-15T00:55:45.857Z,98700.75
2022-09-15T00:58:20.810Z,98692.00
2022-09-15T01:00:52.789Z,98687.16
2022-09-15T01:03:20.488Z,98676.41
2022-09-15T01:05:50.743Z,98685.31
2022-09-15T01:08:22.480Z,98673.97
2022-09-15T01:10:52.073Z,98676.69
2022-09-15T01:13:19.379Z,98666.44
2022-09-15T01:15:53.024Z,98674.44
2022-09-15T01:18:50.516Z,98668.59
2022-09-15T01:21:38.108Z,98658.31
2022-09-15T01:24:11.765Z,98667.50
2022-09-15T01:27:06.540Z,98669.38
2022-09-15T01:30:30.807Z,98672.91
2022-09-15T01:33:15.737Z,98666.16
2022-09-15T01:36:12.384Z,98670.72
2022-09-15T01:38:48.953Z,98672.38
2022-09-15T01:41:19.400Z,98668.03
2022-09-15T01:43:54.508Z,98664.25
2022-09-15T01:46:23.557Z,98664.78
2022-09-15T01:48:50.861Z,98671.81
2022-09-15T01:51:18.313Z,98674.53
2022-09-15T01:53:46.271Z,98684.25
2022-09-15T01:56:13.734Z,98678.03
2022-09-15T01:58:41.087Z,98675.03
2022-09-15T02:01:10.062Z,98679.41
2022-09-15T02:03:55.499Z,98675.59
2022-09-15T02:06:29.686Z,98669.13
2022-09-15T02:09:01.442Z,98668.00
2022-09-15T02:11:28.986Z,98667.44
2022-09-15T02:14:13.843Z,98668.53
2022-09-15T02:16:42.175Z,98659.09
2022-09-15T02:19:32.925Z,98665.88
2022-09-15T02:22:17.619Z,98667.50
2022-09-15T02:24:50.023Z,98673.44
2022-09-15T02:27:22.156Z,98673.16
2022-09-15T02:29:50.360Z,98675.03
2022-09-15T02:32:18.189Z,98680.47
2022-09-15T02:34:47.372Z,98674.53
2022-09-15T02:37:14.981Z,98681.28
2022-09-15T02:39:45.390Z,98672.91
2022-09-15T02:42:13.378Z,98666.41
2022-09-15T02:44:41.338Z,98671.00
2022-09-15T02:47:08.702Z,98665.03
2022-09-15T02:49:36.038Z,98665.34
2022-09-15T02:52:03.691Z,98662.88
2022-09-15T02:54:31.101Z,98667.75
2022-09-15T02:57:00.133Z,98669.66
2022-09-15T02:59:47.681Z,98663.91
2022-09-15T03:02:15.120Z,98663.66
2022-09-15T03:04:42.730Z,98680.16
2022-09-15T03:07:10.057Z,98680.41
2022-09-15T03:09:38.053Z,98684.25
2022-09-15T03:12:05.837Z,98684.25
2022-09-15T03:14:33.203Z,98679.84
2022-09-15T03:17:00.518Z,98679.06
2022-09-15T03:19:28.183Z,98680.69
2022-09-15T03:21:55.518Z,98686.16
2022-09-15T03:24:23.224Z,98679.62
2022-09-15T03:26:50.832Z,98675.56
2022-09-15T03:29:18.202Z,98678.56
2022-09-15T03:31:45.723Z,98675.03
2022-09-15T03:34:13.350Z,98663.66
2022-09-15T03:36:41.222Z,98679.94
2022-09-15T03:39:09.365Z,98673.97
2022-09-15T03:41:37.007Z,98672.34
2022-09-15T03:44:04.546Z,98662.03
2022-09-15T03:46:31.876Z,98662.88
2022-09-15T03:48:59.504Z,98676.94
2022-09-15T03:51:27.221Z,98682.06
2022-09-15T03:53:54.602Z,98684.53
2022-09-15T03:56:27.463Z,98697.25
2022-09-15T03:58:54.783Z,98696.69
2022-09-15T04:01:23.543Z,98701.00
2022-09-15T04:03:51.630Z,98698.31
2022-09-15T04:06:20.887Z,98708.59
2022-09-15T04:08:49.103Z,98704.28
2022-09-15T04:11:17.013Z,98702.41
2022-09-15T04:13:44.360Z,98700.75
2022-09-15T04:16:13.529Z,98702.09
2022-09-15T04:18:41.201Z,98691.28
2022-09-15T04:21:16.705Z,98709.69
2022-09-15T04:23:44.451Z,98693.72
2022-09-15T04:26:15.370Z,98693.44
2022-09-15T04:28:42.743Z,98698.31
2022-09-15T04:31:11.718Z,98704.81
2022-09-15T04:33:39.637Z,98715.09
2022-09-15T04:36:15.260Z,98729.97
2022-09-15T04:38:42.980Z,98738.91
2022-09-15T04:41:10.563Z,98733.44
2022-09-15T04:43:38.071Z,98736.19
2022-09-15T04:46:05.717Z,98732.12
2022-09-15T04:48:33.185Z,98729.16
2022-09-15T04:51:04.323Z,98728.59
2022-09-15T04:53:32.129Z,98724.28
2022-09-15T04:56:04.269Z,98702.09
2022-09-15T04:58:36.076Z,98703.19
2022-09-15T05:01:16.528Z,98695.63
2022-09-15T05:03:44.309Z,98696.69
2022-09-15T05:06:12.645Z,98705.34
2022-09-15T05:08:40.130Z,98718.84
2022-09-15T05:11:09.819Z,98716.72
2022-09-15T05:13:37.201Z,98720.22
2022-09-15T05:16:09.325Z,98720.50
2022-09-15T05:18:36.975Z,98740.00
2022-09-15T05:21:04.921Z,98733.75
2022-09-15T05:23:33.380Z,98758.37
2022-09-15T05:26:02.090Z,98762.69
2022-09-15T05:28:29.578Z,98768.09
2022-09-15T05:30:57.046Z,98762.41
2022-09-15T05:33:24.821Z,98763.78
2022-09-15T05:35:52.752Z,98773.53
2022-09-15T05:38:20.206Z,98767.56
2022-09-15T05:40:47.880Z,98766.53
2022-09-15T05:43:15.454Z,98758.94
2022-09-15T05:45:42.819Z,98760.03
2022-09-15T05:48:11.239Z,98771.09
2022-09-15T05:50:38.820Z,98762.72
2022-09-15T05:53:07.509Z,98752.66
2022-09-15T05:55:38.251Z,98739.53
2022-09-15T05:58:05.625Z,98738.50
2022-09-15T06:00:33.742Z,98737.38
2022-09-15T06:03:01.435Z,98740.62
2022-09-15T06:05:28.934Z,98742.75
2022-09-15T06:07:56.560Z,98754.69
2022-09-15T06:10:27.324Z,98763.69
2022-09-15T06:12:54.743Z,98774.37
2022-09-15T06:15:22.734Z,98764.75
2022-09-15T06:17:50.716Z,98767.03
2022-09-15T06:20:18.723Z,98769.19
2022-09-15T06:22:46.045Z,98764.13
2022-09-15T06:25:13.697Z,98760.06
2022-09-15T06:27:41.564Z,98775.78
2022-09-15T06:30:09.449Z,98791.38
2022-09-15T06:32:37.181Z,98792.47
2022-09-15T06:35:07.781Z,98784.19
2022-09-15T06:37:35.140Z,98786.06
2022-09-15T06:40:04.385Z,98788.41
2022-09-15T06:42:31.762Z,98797.81
2022-09-15T06:44:59.466Z,98796.28
2022-09-15T06:47:33.720Z,98797.44
2022-09-15T06:50:01.337Z,98784.41
2022-09-15T06:52:29.045Z,98786.59
2022-09-15T06:54:56.410Z,98780.22
2022-09-15T06:57:23.849Z,98783.22
2022-09-15T06:59:59.723Z,98783.34
2022-09-15T07:02:27.156Z,98781.47
2022-09-15T07:04:54.873Z,98788.94
2022-09-15T07:07:22.247Z,98800.78
2022-09-15T07:09:49.619Z,98795.72
2022-09-15T07:12:17.266Z,98798.72
2022-09-15T07:14:44.802Z,98809.19
2022-09-15T07:17:12.268Z,98807.59
2022-09-15T07:19:41.372Z,98807.41
2022-09-15T07:22:08.752Z,98808.88
2022-09-15T07:24:36.104Z,98805.84
2022-09-15T07:27:03.809Z,98808.03
2022-09-15T07:29:34.765Z,98820.06
2022-09-15T07:32:05.840Z,98825.16
2022-09-15T07:34:33.762Z,98826.41
2022-09-15T07:37:01.401Z,98824.97
2022-09-15T07:39:29.071Z,98832.78
2022-09-15T07:41:56.508Z,98830.59
2022-09-15T07:44:23.869Z,98811.13
2022-09-15T07:46:51.501Z,98817.69
2022-09-15T07:49:19.085Z,98811.81
2022-09-15T07:51:46.415Z,98821.34
2022-09-15T07:54:16.301Z,98818.66
2022-09-15T07:56:47.054Z,98818.97
2022-09-15T07:59:14.775Z,98819.41
2022-09-15T08:01:42.162Z,98827.41
2022-09-15T08:04:09.875Z,98817.81
2022-09-15T08:06:37.223Z,98814.47
2022-09-15T08:09:04.751Z,98820.75
2022-09-15T08:11:32.561Z,98818.00
2022-09-15T08:14:01.179Z,98824.59
2022-09-15T08:16:28.586Z,98820.19
2022-09-15T08:18:56.305Z,98831.25
2022-09-15T08:21:23.961Z,98837.91
2022-09-15T08:23:52.576Z,98831.56
2022-09-15T08:26:20.233Z,98816.53
2022-09-15T08:28:47.990Z,98827.56
2022-09-15T08:31:15.579Z,98830.06
2022-09-15T08:33:45.914Z,98822.06
2022-09-15T08:36:13.517Z,98815.75
2022-09-15T08:38:41.427Z,98803.84
2022-09-15T08:41:13.719Z,98802.53
2022-09-15T08:43:44.849Z,98804.56
2022-09-15T08:46:15.387Z,98803.81
2022-09-15T08:48:47.995Z,98799.88
2022-09-15T08:51:21.186Z,98797.97
2022-09-15T08:53:52.406Z,98786.06
2022-09-15T08:56:21.043Z,98787.97
2022-09-15T08:58:48.626Z,98788.69
2022-09-15T09:01:38.385Z,98782.22
2022-09-15T09:04:32.272Z,98778.38
2022-09-15T09:07:24.546Z,98788.19
2022-09-15T09:10:04.482Z,98779.69
2022-09-15T09:12:54.595Z,98782.69
2022-09-15T09:15:36.971Z,98770.00
2022-09-15T09:18:25.879Z,98769.84
2022-09-15T09:21:04.610Z,98765.06
2022-09-15T09:23:33.069Z,98764.34
2022-09-15T09:26:02.093Z,98755.78
2022-09-15T09:28:36.301Z,98761.44
2022-09-15T09:31:07.120Z,98763.88
2022-09-15T09:33:43.890Z,98751.34
2022-09-15T09:36:14.403Z,98749.63
2022-09-15T09:38:43.358Z,98749.63
2022-09-15T09:41:15.393Z,98756.00
2022-09-15T09:43:43.426Z,98748.97
2022-09-15T09:46:16.225Z,98746.50
2022-09-15T09:48:56.467Z,98737.41
2022-09-15T09:52:02.384Z,98737.91
2022-09-15T09:54:33.885Z,98730.69
2022-09-15T09:57:13.566Z,98721.00
2022-09-15T09:59:46.089Z,98714.50
2022-09-15T10:02:23.239Z,98713.53
2022-09-15T10:05:02.806Z,98695.94
2022-09-15T10:07:30.362Z,98681.44
2022-09-15T10:09:59.190Z,98678.06
2022-09-15T10:12:34.747Z,98680.09
2022-09-15T10:15:02.697Z,98671.50
2022-09-15T10:17:36.044Z,98666.44
2022-09-15T10:20:05.093Z,98661.56
2022-09-15T10:22:33.959Z,98642.59
2022-09-15T10:25:02.623Z,98631.25
2022-09-15T10:27:32.022Z,98637.19
2022-09-15T10:30:14.675Z,98638.09
2022-09-15T10:32:42.765Z,98624.88
2022-09-15T10:35:14.754Z,98634.06
2022-09-15T10:38:11.903Z,98625.66
2022-09-15T10:40:48.289Z,98628.28
2022-09-15T10:43:49.428Z,98632.50
2022-09-15T10:46:24.010Z,98631.31
2022-09-15T10:49:03.820Z,98632.91
2022-09-15T10:51:43.028Z,98631.56
2022-09-15T10:54:17.478Z,98642.56
2022-09-15T10:56:47.601Z,98642.78
2022-09-15T10:59:33.887Z,98657.25
2022-09-15T11:02:19.921Z,98653.44
2022-09-15T11:05:00.366Z,98656.84
2022-09-15T11:07:42.676Z,98647.03
2022-09-15T11:10:20.371Z,98640.50
2022-09-15T11:13:03.047Z,98637.75
2022-09-15T11:15:53.150Z,98644.91
2022-09-15T11:18:27.705Z,98635.50
2022-09-15T11:20:58.359Z,98642.13
2022-09-15T11:23:32.500Z,98647.72
2022-09-15T11:26:07.944Z,98642.91
2022-09-15T11:28:43.958Z,98650.06
2022-09-15T11:31:42.237Z,98647.31
2022-09-15T11:34:21.068Z,98644.09
2022-09-15T11:37:05.452Z,98631.38
2022-09-15T11:39:46.717Z,98629.34
2022-09-15T11:42:18.565Z,98616.91
2022-09-15T11:44:46.561Z,98605.09
2022-09-15T11:47:23.214Z,98597.16
2022-09-15T11:50:10.074Z,98578.91
2022-09-15T11:52:52.140Z,98576.78
2022-09-15T11:55:30.047Z,98572.28
2022-09-15T11:58:39.583Z,98569.28
2022-09-15T12:01:20.411Z,98563.13
2022-09-15T12:03:59.571Z,98586.81
2022-09-15T12:06:40.006Z,98592.59
2022-09-15T12:09:12.802Z,98600.66
2022-09-15T12:11:57.229Z,98595.16
2022-09-15T12:14:54.095Z,98594.38
2022-09-15T12:17:53.656Z,98590.06
2022-09-15T12:20:59.635Z,98594.44
2022-09-15T12:23:32.813Z,98579.72
2022-09-15T12:26:05.272Z,98565.59
2022-09-15T12:28:56.229Z,98562.06
2022-09-15T12:31:23.716Z,98563.97
2022-09-15T12:34:25.158Z,98563.81
2022-09-15T12:36:53.669Z,98561.72
2022-09-15T12:39:37.984Z,98562.41
2022-09-15T12:42:22.577Z,98561.94
2022-09-15T12:45:20.038Z,98550.41
2022-09-15T12:47:56.538Z,98529.75
2022-09-15T12:50:27.457Z,98572.19
2022-09-15T12:53:00.353Z,98622.94
2022-09-15T12:55:34.932Z,98656.75
2022-09-15T12:58:10.320Z,98635.50
2022-09-15T13:00:45.541Z,98655.22
2022-09-15T13:03:47.244Z,98637.47
2022-09-15T13:06:24.705Z,98627.03
2022-09-15T13:08:52.297Z,98618.00
2022-09-15T13:11:25.504Z,98608.25
2022-09-15T13:13:55.980Z,98606.03
2022-09-15T13:16:43.681Z,98591.63
2022-09-15T13:19:31.317Z,98592.16
2022-09-15T13:22:00.452Z,98593.34
2022-09-15T13:24:38.091Z,98591.59
2022-09-15T13:27:05.925Z,98592.84
2022-09-15T13:29:33.551Z,98601.31
2022-09-15T13:32:10.043Z,98609.22
2022-09-15T13:35:07.200Z,98605.06
2022-09-15T13:38:13.546Z,98603.63
2022-09-15T13:40:43.011Z,98597.00
2022-09-15T13:43:41.025Z,98587.34
2022-09-15T13:46:32.719Z,98588.09
2022-09-15T13:49:32.813Z,98596.31
2022-09-15T13:52:23.404Z,98614.94
2022-09-15T13:55:17.013Z,98602.81
2022-09-15T14:00:58.831Z,98610.62
2022-09-15T14:03:38.748Z,98607.41
2022-09-15T14:06:33.563Z,98610.97
2022-09-15T14:09:04.584Z,98608.59
2022-09-15T14:11:32.647Z,98598.16
2022-09-15T14:14:00.900Z,98596.28
2022-09-15T14:16:39.042Z,98607.97
2022-09-15T14:19:30.553Z,98577.72
2022-09-15T14:21:59.108Z,98575.19
2022-09-15T14:24:29.242Z,98579.34
2022-09-15T14:27:01.214Z,98610.94
2022-09-15T14:29:28.936Z,98604.50
2022-09-15T14:32:00.325Z,98617.75
2022-09-15T14:34:30.564Z,98632.31
2022-09-15T14:37:06.172Z,98637.13
2022-09-15T14:39:34.191Z,98649.25
2022-09-15T14:42:18.985Z,98646.03
2022-09-15T14:47:39.628Z,98664.63
2022-09-15T14:50:15.680Z,98713.66
2022-09-15T14:53:03.617Z,98666.13
2022-09-15T14:55:38.204Z,98640.31
2022-09-15T14:58:18.921Z,98647.31
2022-09-15T15:01:15.812Z,98667.44
2022-09-15T15:03:48.164Z,98683.63
2022-09-15T15:06:29.403Z,98688.97
2022-09-15T15:09:12.842Z,98667.53
2022-09-15T15:11:40.339Z,98677.56
2022-09-15T15:14:08.533Z,98667.25
2022-09-15T15:16:36.020Z,98633.06
2022-09-15T15:19:03.520Z,98618.88
2022-09-15T15:21:41.388Z,98646.50
2022-09-15T15:24:14.835Z,98657.59
2022-09-15T15:26:43.361Z,98659.31
2022-09-15T15:29:46.111Z,98653.38
2022-09-15T15:32:15.609Z,98658.25
2022-09-15T15:34:58.607Z,98668.56
2022-09-15T15:37:27.540Z,98679.91
2022-09-15T15:40:00.914Z,98687.09
2022-09-15T15:42:29.082Z,98671.50
2022-09-15T15:45:21.235Z,98669.66
2022-09-15T15:47:50.487Z,98650.22
2022-09-15T15:50:20.802Z,98639.38
2022-09-15T15:52:48.657Z,98629.91
2022-09-15T15:55:17.755Z,98625.88
2022-09-15T15:57:45.614Z,98626.12
2022-09-15T16:00:21.531Z,98628.53
2022-09-15T16:02:52.659Z,98619.38
2022-09-15T16:05:20.703Z,98612.34
2022-09-15T16:07:48.436Z,98597.22
2022-09-15T16:10:18.622Z,98581.53
2022-09-15T16:12:45.950Z,98572.03
2022-09-15T16:15:16.777Z,98575.47
2022-09-15T16:17:46.827Z,98573.38
2022-09-15T16:20:16.107Z,98568.50
2022-09-15T16:22:43.903Z,98563.19
2022-09-15T16:25:33.156Z,98557.78
2022-09-15T16:28:02.660Z,98536.38
2022-09-15T16:30:30.212Z,98533.69
2022-09-15T16:32:57.767Z,98551.81
2022-09-15T16:35:43.206Z,98559.91
2022-09-15T16:38:10.600Z,98546.38
2022-09-15T16:40:38.205Z,98564.22
2022-09-15T16:43:09.761Z,98579.34
2022-09-15T16:45:40.810Z,98584.50
2022-09-15T16:48:09.552Z,98582.59
2022-09-15T16:50:39.795Z,98592.84
2022-09-15T16:53:18.378Z,98600.69
2022-09-15T16:55:50.607Z,98595.28
2022-09-15T16:58:19.218Z,98598.81
2022-09-15T17:00:48.225Z,98597.19
2022-09-15T17:03:17.791Z,98598.81
2022-09-15T17:05:48.630Z,98611.25
2022-09-15T17:08:16.969Z,98626.84
2022-09-15T17:10:46.133Z,98629.84
2022-09-15T17:13:16.394Z,98634.94
2022-09-15T17:15:45.743Z,98626.09
2022-09-15T17:18:15.383Z,98620.94
2022-09-15T17:20:43.550Z,98607.44
2022-09-15T17:23:23.480Z,98610.69
2022-09-15T17:25:53.002Z,98601.22
2022-09-15T17:28:22.362Z,98600.13
2022-09-15T17:30:50.757Z,98593.91
2022-09-15T17:33:19.855Z,98585.28
2022-09-15T17:35:47.429Z,98589.59
2022-09-15T17:38:16.730Z,98591.72
2022-09-15T17:40:44.369Z,98586.34
2022-09-15T17:43:16.681Z,98581.78
2022-09-15T17:45:44.417Z,98585.50
2022-09-15T17:48:13.153Z,98585.81
2022-09-15T17:50:41.783Z,98581.50
2022-09-15T17:53:13.399Z,98586.38
2022-09-15T17:55:40.795Z,98587.19
2022-09-15T17:58:08.257Z,98587.94
2022-09-15T18:00:37.946Z,98588.53
2022-09-15T18:03:15.745Z,98589.84
2022-09-15T18:05:43.114Z,98601.97
2022-09-15T18:08:10.827Z,98599.91
2022-09-15T18:10:38.214Z,98597.75
2022-09-15T18:13:05.864Z,98615.03
2022-09-15T18:15:34.514Z,98614.16
2022-09-15T18:18:04.061Z,98602.47
2022-09-15T18:20:32.827Z,98608.75
2022-09-15T18:23:00.477Z,98616.75
2022-09-15T18:25:33.584Z,98624.53
2022-09-15T18:28:01.480Z,98625.53
2022-09-15T18:30:33.601Z,98623.44
2022-09-15T18:33:04.221Z,98630.81
2022-09-15T18:35:32.000Z,98627.59
2022-09-15T18:37:59.744Z,98625.72
2022-09-15T18:40:27.918Z,98627.88
2022-09-15T18:42:56.569Z,98621.94
2022-09-15T18:45:26.007Z,98618.44
2022-09-15T18:47:53.698Z,98611.09
2022-09-15T18:50:22.673Z,98607.84
2022-09-15T18:52:50.530Z,98611.50
2022-09-15T18:55:20.227Z,98613.25
2022-09-15T18:57:48.266Z,98612.22
2022-09-15T19:00:20.460Z,98616.34
2022-09-15T19:02:48.361Z,98621.87
2022-09-15T19:05:17.234Z,98624.44
2022-09-15T19:07:45.714Z,98629.91
2022-09-15T19:10:14.344Z,98636.84
2022-09-15T19:12:41.806Z,98634.16
2022-09-15T19:15:11.249Z,98629.03
2022-09-15T19:17:39.468Z,98622.81
2022-09-15T19:20:08.310Z,98636.03
2022-09-15T19:22:35.814Z,98647.22
2022-09-15T19:25:04.157Z,98655.31
2022-09-15T19:27:31.625Z,98656.31
2022-09-15T19:30:04.136Z,98656.75
2022-09-15T19:32:32.613Z,98658.94
2022-09-15T19:35:00.042Z,98669.41
2022-09-15T19:37:27.546Z,98665.66
2022-09-15T19:39:55.658Z,98670.78
2022-09-15T19:42:23.030Z,98664.88
2022-09-15T19:44:50.444Z,98664.97
2022-09-15T19:47:18.061Z,98664.66
2022-09-15T19:49:45.425Z,98665.16
2022-09-15T19:52:12.828Z,98669.28
2022-09-15T19:54:40.510Z,98663.84
2022-09-15T19:57:07.846Z,98666.28
2022-09-15T19:59:35.613Z,98661.88
2022-09-15T20:02:03.297Z,98670.28
2022-09-15T20:04:30.970Z,98662.56
2022-09-15T20:06:58.291Z,98675.28
2022-09-15T20:09:26.244Z,98669.47
2022-09-15T20:11:53.974Z,98682.53
2022-09-15T20:14:21.248Z,98688.69
2022-09-15T20:16:48.582Z,98693.56
2022-09-15T20:19:16.216Z,98708.47
2022-09-15T20:21:50.397Z,98707.59
2022-09-15T20:24:19.162Z,98705.25
2022-09-15T20:26:46.912Z,98707.19
2022-09-15T20:29:14.384Z,98708.78
2022-09-15T20:31:42.096Z,98710.97
2022-09-15T20:34:09.429Z,98716.34
2022-09-15T20:36:38.369Z,98718.56
2022-09-15T20:39:09.222Z,98712.28
2022-09-15T20:41:37.052Z,98715.00
2022-09-15T20:44:05.979Z,98714.81
2022-09-15T20:46:33.639Z,98718.69
2022-09-15T20:49:01.444Z,98727.38
2022-09-15T20:51:31.603Z,98736.84
2022-09-15T20:54:00.096Z,98727.97
2022-09-15T20:56:28.502Z,98730.09
2022-09-15T20:58:57.114Z,98735.75
2022-09-15T21:01:29.113Z,98734.75
2022-09-15T21:03:56.517Z,98734.88
2022-09-15T21:06:25.461Z,98746.88
2022-09-15T21:08:53.417Z,98740.41
2022-09-15T21:11:20.977Z,98742.69
2022-09-15T21:13:49.365Z,98742.78
2022-09-15T21:16:18.825Z,98745.38
2022-09-15T21:18:46.411Z,98749.03
2022-09-15T21:21:21.020Z,98748.88
2022-09-15T21:23:49.870Z,98745.03
2022-09-15T21:26:18.641Z,98742.25
2022-09-15T21:28:46.012Z,98745.22
2022-09-15T21:31:18.053Z,98730.88
2022-09-15T21:33:45.967Z,98736.00
2022-09-15T21:36:17.997Z,98738.13
2022-09-15T21:38:45.391Z,98751.59
2022-09-15T21:41:14.177Z,98750.34
2022-09-15T21:43:43.140Z,98758.75
2022-09-15T21:46:11.845Z,98757.38
2022-09-15T21:48:39.333Z,98758.03
2022-09-15T21:51:07.304Z,98769.66
2022-09-15T21:53:37.808Z,98786.97
2022-09-15T21:56:06.034Z,98782.56
2022-09-15T21:58:41.745Z,98792.59
2022-09-15T22:01:19.687Z,98812.56
2022-09-15T22:03:49.440Z,98811.31
2022-09-15T22:06:16.870Z,98812.22
2022-09-15T22:08:44.418Z,98815.66
2022-09-15T22:11:12.008Z,98818.72
2022-09-15T22:13:40.549Z,98811.91
2022-09-15T22:16:10.672Z,98814.16
2022-09-15T22:18:38.706Z,98816.34
2022-09-15T22:21:10.020Z,98812.56
2022-09-15T22:23:37.890Z,98821.28
2022-09-15T22:26:07.008Z,98826.91
2022-09-15T22:28:34.358Z,98821.63
2022-09-15T22:31:03.870Z,98819.41
2022-09-15T22:33:31.270Z,98832.09
2022-09-15T22:35:58.622Z,98829.53
2022-09-15T22:38:28.377Z,98840.28
2022-09-15T22:40:55.813Z,98839.56
2022-09-15T22:43:23.209Z,98840.19
2022-09-15T22:45:50.888Z,98843.09
2022-09-15T22:48:18.322Z,98842.22
2022-09-15T22:50:45.977Z,98860.44
2022-09-15T22:53:13.727Z,98863.81
2022-09-15T22:55:41.066Z,98870.63
2022-09-15T22:58:08.540Z,98874.09
2022-09-15T23:00:39.315Z,98880.00
2022-09-15T23:03:06.866Z,98882.19
2022-09-15T23:05:34.459Z,98893.28
2022-09-15T23:08:02.744Z,98895.16
2022-09-15T23:10:30.385Z,98901.38
2022-09-15T23:12:59.003Z,98899.28
2022-09-15T23:15:26.677Z,98895.22
2022-09-15T23:17:54.253Z,98897.25
2022-09-15T23:20:21.625Z,98904.34
2022-09-15T23:22:49.224Z,98899.03
2022-09-15T23:25:17.248Z,98898.22
2022-09-15T23:27:44.609Z,98900.28
2022-09-15T23:30:12.714Z,98914.44
2022-09-15T23:32:40.131Z,98918.59
2022-09-15T23:35:07.909Z,98908.72
2022-09-15T23:37:35.599Z,98904.22
2022-09-15T23:40:03.046Z,98915.44
2022-09-15T23:42:30.402Z,98914.62
2022-09-15T23:44:57.981Z,98916.78
2022-09-15T23:47:25.297Z,98909.69
2022-09-15T23:49:52.999Z,98897.47
2022-09-15T23:52:20.624Z,98898.03
2022-09-15T23:54:47.943Z,98900.47
2022-09-15T23:57:15.277Z,98899.50
2022-09-15T23:59:42.938Z,98898.03
